Time;durP1;ratioP1;P1;durP2;ratioP2;P2;SDS_P1;SDS_P2;PMS_P1;PMS_P2;Temp;Humidity;BMP_temperature;BMP_pressure;BME280_temperature;BME280_humidity;BME280_pressure;Samples;Min_cycle;Max_cycle;Signal;HPM_P1;HPM_P2
2022/06/02 00:01:09;;;;;;;2.80;2.60;;;10.20;99.90;;;;;;4989724;28;20267;-81
2022/06/02 00:03:42;;;;;;;3.50;2.67;;;10.20;99.90;;;;;;4990636;28;20218;-80
2022/06/02 00:06:16;;;;;;;3.17;2.30;;;10.10;99.90;;;;;;4989368;28;20236;-79
2022/06/02 00:08:58;;;;;;;2.80;2.60;;;10.10;99.90;;;;;;4984752;28;20567;-80
2022/06/02 00:11:36;;;;;;;2.63;2.43;;;10.10;99.90;;;;;;4970607;28;20328;-80
2022/06/02 00:14:11;;;;;;;2.50;2.30;;;10.00;99.90;;;;;;4975505;28;20363;-79
2022/06/02 00:16:49;;;;;;;2.23;1.93;;;10.00;99.90;;;;;;4990193;28;20222;-79
2022/06/02 00:19:27;;;;;;;3.23;2.60;;;10.00;99.90;;;;;;4990372;28;20255;-79
2022/06/02 00:22:00;;;;;;;2.60;2.40;;;9.90;99.90;;;;;;4991150;28;20204;-79
2022/06/02 00:24:35;;;;;;;3.20;2.20;;;9.90;99.90;;;;;;4990516;28;20240;-81
2022/06/02 00:27:10;;;;;;;2.73;2.50;;;9.90;99.90;;;;;;4989885;28;20227;-79
2022/06/02 00:29:48;;;;;;;2.53;2.30;;;9.80;99.90;;;;;;4990925;28;20198;-80
2022/06/02 00:32:20;;;;;;;2.60;2.40;;;9.80;99.90;;;;;;4990413;28;20204;-79
2022/06/02 00:34:53;;;;;;;2.73;2.53;;;9.80;99.90;;;;;;4990356;28;20299;-79
2022/06/02 00:37:29;;;;;;;2.43;2.23;;;9.80;99.90;;;;;;4990357;28;20291;-80
2022/06/02 00:39:57;;;;;;;2.40;2.20;;;9.80;99.90;;;;;;4989634;28;20499;-82
2022/06/02 00:42:37;;;;;;;3.10;2.80;;;9.80;99.90;;;;;;4981213;28;20240;-84
2022/06/02 00:45:08;;;;;;;2.90;2.70;;;9.80;99.90;;;;;;4969047;28;20204;-81
2022/06/02 00:47:45;;;;;;;2.70;2.50;;;9.80;99.90;;;;;;4968597;28;20228;-79
2022/06/02 00:50:15;;;;;;;3.30;3.00;;;9.70;99.90;;;;;;4969282;28;20208;-79
2022/06/02 00:52:52;;;;;;;2.60;2.40;;;9.70;99.90;;;;;;4969307;28;20211;-78
2022/06/02 00:58:29;;;;;;;2.67;2.47;;;9.70;99.90;;;;;;4969049;28;20327;-78
2022/06/02 01:01:04;;;;;;;2.70;2.50;;;9.70;99.90;;;;;;4969049;28;20283;-80
2022/06/02 01:03:40;;;;;;;2.50;2.30;;;9.60;99.90;;;;;;4968475;28;20208;-80
2022/06/02 01:06:36;;;;;;;2.90;2.60;;;9.60;99.90;;;;;;4968231;28;20715;-79
2022/06/02 01:09:24;;;;;;;2.50;2.33;;;9.60;99.90;;;;;;4969083;28;20524;-81
2022/06/02 01:12:04;;;;;;;2.77;2.57;;;9.60;99.90;;;;;;4967276;28;20584;-78
2022/06/02 01:14:53;;;;;;;4.07;3.37;;;9.50;99.90;;;;;;4969427;28;20739;-83
2022/06/02 01:17:28;;;;;;;2.60;2.40;;;9.50;99.90;;;;;;4969138;28;20311;-78
2022/06/02 01:20:17;;;;;;;2.80;2.60;;;9.50;99.90;;;;;;4969611;28;20205;-78
2022/06/02 01:23:22;;;;;;;3.00;2.73;;;9.40;99.90;;;;;;4969986;28;20220;-78
2022/06/02 01:26:16;;;;;;;3.50;3.20;;;9.40;99.90;;;;;;4969025;28;20228;-79
2022/06/02 01:28:51;;;;;;;3.07;2.77;;;9.40;99.90;;;;;;4969840;28;20240;-79
2022/06/02 01:31:37;;;;;;;2.80;2.60;;;9.40;99.90;;;;;;4977526;28;20200;-79
2022/06/02 01:34:13;;;;;;;2.67;2.47;;;9.30;99.90;;;;;;4989026;28;20326;-83
2022/06/02 01:36:50;;;;;;;2.57;2.37;;;9.30;99.90;;;;;;4986606;28;20221;-78
2022/06/02 01:39:40;;;;;;;3.37;3.07;;;9.30;99.90;;;;;;4969824;28;20207;-78
2022/06/02 01:42:18;;;;;;;3.70;3.40;;;9.30;99.90;;;;;;4969356;28;20296;-81
2022/06/02 01:44:55;;;;;;;3.60;3.30;;;9.30;99.90;;;;;;4968948;28;20574;-81
2022/06/02 01:47:32;;;;;;;3.27;2.97;;;9.20;99.90;;;;;;4979651;28;20382;-80
2022/06/02 01:50:12;;;;;;;3.13;2.87;;;9.20;99.90;;;;;;4989538;28;20200;-81
2022/06/02 01:52:46;;;;;;;3.90;3.50;;;9.20;99.90;;;;;;4983210;28;20604;-79
2022/06/02 01:55:26;;;;;;;3.90;3.60;;;9.20;99.90;;;;;;4969521;28;20215;-83
2022/06/02 01:58:09;;;;;;;3.63;3.33;;;9.10;99.90;;;;;;4984573;28;20226;-80
2022/06/02 02:00:37;;;;;;;4.93;4.40;;;9.10;99.90;;;;;;4988130;28;20226;-80
2022/06/02 02:03:18;;;;;;;3.97;3.60;;;9.10;99.90;;;;;;4987670;28;20207;-80
2022/06/02 02:06:07;;;;;;;4.20;3.80;;;9.00;99.90;;;;;;4987002;28;20200;-80
2022/06/02 02:08:59;;;;;;;3.37;3.07;;;9.00;99.90;;;;;;4968177;28;20228;-79
2022/06/02 02:11:45;;;;;;;3.73;3.40;;;9.00;99.90;;;;;;4967261;28;20212;-82
2022/06/02 02:14:42;;;;;;;3.00;2.80;;;9.00;99.90;;;;;;4969375;28;20435;-79
2022/06/02 02:17:21;;;;;;;4.47;4.07;;;9.00;99.90;;;;;;4968480;28;20316;-82
2022/06/02 02:19:58;;;;;;;3.43;3.00;;;9.00;99.90;;;;;;4969823;28;20318;-83
2022/06/02 02:22:36;;;;;;;4.10;3.70;;;9.00;99.90;;;;;;4970313;28;20231;-80
2022/06/02 02:25:14;;;;;;;3.60;3.30;;;8.90;99.90;;;;;;4972614;28;20255;-82
2022/06/02 02:28:05;;;;;;;3.83;3.53;;;8.90;99.90;;;;;;4973585;28;20644;-82
2022/06/02 02:30:42;;;;;;;4.23;3.83;;;8.90;99.90;;;;;;4971126;28;20204;-80
2022/06/02 02:33:22;;;;;;;4.63;4.23;;;8.90;99.90;;;;;;4972133;28;20204;-78
2022/06/02 02:35:58;;;;;;;4.60;4.20;;;8.80;99.90;;;;;;4972717;28;20271;-78
2022/06/02 02:38:43;;;;;;;4.07;3.67;;;8.80;99.90;;;;;;4972885;28;20196;-80
2022/06/02 02:41:15;;;;;;;3.13;2.93;;;8.80;99.90;;;;;;4971382;28;20204;-79
2022/06/02 02:43:50;;;;;;;4.20;3.80;;;8.80;99.90;;;;;;4972155;28;20226;-79
2022/06/02 02:46:21;;;;;;;3.87;3.57;;;8.80;99.90;;;;;;4971467;28;20232;-79
2022/06/02 02:48:57;;;;;;;4.63;4.23;;;8.80;99.90;;;;;;4971924;28;20211;-81
2022/06/02 02:51:38;;;;;;;4.77;4.37;;;8.70;99.90;;;;;;4972213;28;20200;-79
2022/06/02 02:54:11;;;;;;;4.10;3.70;;;8.70;99.90;;;;;;4982442;28;20790;-79
2022/06/02 02:56:48;;;;;;;4.43;3.77;;;8.70;99.90;;;;;;4992223;28;20688;-79
2022/06/02 02:59:23;;;;;;;3.60;3.30;;;8.70;99.90;;;;;;4992000;28;20199;-83
2022/06/02 03:02:01;;;;;;;3.53;3.20;;;8.70;99.90;;;;;;4991611;28;20214;-79
2022/06/02 03:04:37;;;;;;;3.73;3.43;;;8.60;99.90;;;;;;4972846;28;20193;-80
2022/06/02 03:07:06;;;;;;;3.60;3.30;;;8.60;99.90;;;;;;4971146;28;20232;-82
2022/06/02 03:09:41;;;;;;;4.17;3.87;;;8.60;99.90;;;;;;4986365;28;20290;-78
2022/06/02 03:12:16;;;;;;;3.77;3.40;;;8.60;99.90;;;;;;4991647;28;20294;-81
2022/06/02 03:15:08;;;;;;;4.20;3.80;;;8.60;99.90;;;;;;4991005;28;20314;-84
2022/06/02 03:17:47;;;;;;;4.63;3.73;;;8.60;99.90;;;;;;4971626;28;20231;-78
2022/06/02 03:20:20;;;;;;;4.53;4.13;;;8.60;99.90;;;;;;4971662;28;20287;-79
2022/06/02 03:23:04;;;;;;;4.50;4.10;;;8.60;99.90;;;;;;4971562;28;20224;-82
2022/06/02 03:25:35;;;;;;;4.60;4.20;;;8.50;99.90;;;;;;4971202;28;20972;-79
2022/06/02 03:28:14;;;;;;;4.57;4.20;;;8.60;99.90;;;;;;4977940;28;20625;-79
2022/06/02 03:30:46;;;;;;;4.30;3.90;;;8.60;99.90;;;;;;4991304;28;20619;-83
2022/06/02 03:33:27;;;;;;;4.60;4.20;;;8.50;99.90;;;;;;4990871;28;20207;-81
2022/06/02 03:36:01;;;;;;;4.70;4.07;;;8.60;99.90;;;;;;4991295;28;20216;-79
2022/06/02 03:38:46;;;;;;;4.77;4.37;;;8.60;99.90;;;;;;4992811;28;20560;-78
2022/06/02 03:41:26;;;;;;;5.07;4.67;;;8.60;99.90;;;;;;4991300;28;20338;-80
2022/06/02 03:44:01;;;;;;;4.63;4.10;;;8.60;99.90;;;;;;4993732;28;20223;-88
2022/06/02 03:46:44;;;;;;;4.23;3.93;;;8.60;99.90;;;;;;4995860;28;20270;-81
2022/06/02 03:49:35;;;;;;;5.97;4.60;;;8.60;99.90;;;;;;4994783;28;20200;-85
2022/06/02 03:52:15;;;;;;;4.50;4.17;;;8.70;99.90;;;;;;4995549;28;20287;-86
2022/06/02 03:55:13;;;;;;;4.60;4.20;;;8.70;99.90;;;;;;4984236;28;20874;-84
2022/06/02 03:58:04;;;;;;;4.77;4.20;;;8.70;99.90;;;;;;4974697;28;20659;-86
2022/06/02 04:00:45;;;;;;;4.33;3.93;;;8.70;99.90;;;;;;4993897;28;20207;-84
2022/06/02 04:03:18;;;;;;;4.13;3.83;;;8.80;99.90;;;;;;4992459;28;20199;-82
2022/06/02 04:05:58;;;;;;;3.97;3.67;;;8.80;99.90;;;;;;4990361;28;20218;-80
2022/06/02 04:08:39;;;;;;;5.87;4.70;;;8.80;99.90;;;;;;4990444;28;20358;-82
2022/06/02 04:11:21;;;;;;;4.87;4.13;;;8.90;99.90;;;;;;4990053;28;20203;-83
2022/06/02 04:13:59;;;;;;;5.97;5.43;;;8.90;99.90;;;;;;4982795;28;20331;-81
2022/06/02 04:16:56;;;;;;;5.07;4.60;;;9.00;99.90;;;;;;4985385;28;20204;-86
2022/06/02 04:22:52;;;;;;;5.27;4.77;;;9.20;99.90;;;;;;4986711;28;20195;-81
2022/06/02 04:25:31;;;;;;;5.13;4.63;;;9.30;99.90;;;;;;4989938;28;20324;-81
2022/06/02 04:28:10;;;;;;;5.13;4.63;;;9.40;99.90;;;;;;4990315;28;20262;-81
2022/06/02 04:30:48;;;;;;;4.30;4.00;;;9.40;99.90;;;;;;4989270;28;20214;-85
2022/06/02 04:33:22;;;;;;;4.80;4.40;;;9.50;99.90;;;;;;4980027;28;20294;-80
2022/06/02 04:35:57;;;;;;;4.70;4.20;;;9.50;99.90;;;;;;4970087;28;20307;-81
2022/06/02 04:38:31;;;;;;;4.63;4.17;;;9.60;99.90;;;;;;4969490;28;20208;-79
2022/06/02 04:41:06;;;;;;;4.77;4.37;;;9.60;99.90;;;;;;4974692;28;20210;-79
2022/06/02 04:43:45;;;;;;;4.97;4.23;;;9.60;99.90;;;;;;4990198;28;20225;-80
2022/06/02 04:46:24;;;;;;;5.80;4.93;;;9.70;99.90;;;;;;4990279;28;20536;-81
2022/06/02 04:48:56;;;;;;;4.57;4.00;;;9.70;99.90;;;;;;4988837;28;20212;-80
2022/06/02 04:51:32;;;;;;;4.57;4.17;;;9.80;99.90;;;;;;4992263;28;20244;-84
2022/06/02 04:54:10;;;;;;;6.80;6.10;;;9.90;99.90;;;;;;4992534;28;20210;-88
2022/06/02 04:56:42;;;;;;;8.20;5.73;;;10.00;99.90;;;;;;4993283;28;20207;-82
2022/06/02 04:59:16;;;;;;;6.87;5.57;;;10.10;99.90;;;;;;4978053;28;20920;-81
2022/06/02 05:02:01;;;;;;;7.53;5.80;;;10.40;99.90;;;;;;4973072;28;20224;-85
2022/06/02 05:04:41;;;;;;;7.97;7.27;;;11.00;99.90;;;;;;4973277;28;20185;-81
2022/06/02 05:07:16;;;;;;;9.13;7.53;;;11.70;99.90;;;;;;4973494;28;20232;-81
2022/06/02 05:09:49;;;;;;;8.00;6.57;;;12.40;99.90;;;;;;4972300;28;20208;-88
2022/06/02 05:12:24;;;;;;;8.03;6.30;;;13.00;99.90;;;;;;4973204;28;20292;-83
2022/06/02 05:15:05;;;;;;;6.20;5.40;;;13.70;99.90;;;;;;4973076;28;20259;-82
2022/06/02 05:17:56;;;;;;;4.60;3.93;;;14.20;99.90;;;;;;4972525;28;20212;-80
2022/06/02 05:20:47;;;;;;;4.53;2.87;;;14.20;99.90;;;;;;4971700;28;20232;-85
2022/06/02 05:23:41;;;;;;;2.93;2.23;;;14.10;99.90;;;;;;4963875;28;20272;-85
2022/06/02 05:26:33;;;;;;;4.90;3.20;;;14.00;99.90;;;;;;4971116;28;20252;-88
2022/06/02 05:29:36;;;;;;;3.10;2.90;;;14.00;99.90;;;;;;4935161;28;20325;-80
2022/06/02 05:32:46;;;;;;;5.23;3.20;;;14.00;99.90;;;;;;4972755;28;20280;-84
2022/06/02 05:35:40;;;;;;;5.97;3.13;;;14.40;99.90;;;;;;4971118;28;20671;-81
2022/06/02 05:38:34;;;;;;;5.75;2.80;;;14.80;99.90;;;;;;4971145;28;20200;-86
2022/06/02 05:41:11;;;;;;;3.75;2.38;;;15.20;99.90;;;;;;4991628;28;20196;-83
2022/06/02 05:43:45;;;;;;;3.78;1.75;;;15.80;99.90;;;;;;4989976;28;20211;-80
2022/06/02 05:46:29;;;;;;;2.72;1.88;;;16.50;99.90;;;;;;4990864;28;20525;-85
2022/06/02 05:49:11;;;;;;;1.77;1.08;;;17.10;99.90;;;;;;4990985;28;20227;-80
2022/06/02 05:51:48;;;;;;;1.50;1.00;;;17.10;99.90;;;;;;4970009;28;20204;-82
2022/06/02 05:54:30;;;;;;;1.50;1.20;;;16.90;99.90;;;;;;4968299;28;20280;-80
2022/06/02 05:57:08;;;;;;;3.90;1.75;;;16.60;99.90;;;;;;4969087;28;20632;-82
2022/06/02 05:59:52;;;;;;;3.08;1.20;;;16.30;99.90;;;;;;4984640;28;20510;-82
2022/06/02 06:02:42;;;;;;;1.00;1.00;;;16.00;99.90;;;;;;4987647;28;20203;-81
2022/06/02 06:05:15;;;;;;;1.77;1.10;;;15.70;99.90;;;;;;4977294;28;20248;-80
2022/06/02 06:08:17;;;;;;;3.40;1.30;;;15.40;99.90;;;;;;4968762;28;21006;-82
2022/06/02 06:10:54;;;;;;;2.70;1.40;;;15.40;99.90;;;;;;4974471;28;20207;-81
2022/06/02 06:14:03;;;;;;;1.80;1.25;;;15.70;99.90;;;;;;4986694;28;20596;-80
2022/06/02 06:16:39;;;;;;;2.72;1.17;;;15.90;99.90;;;;;;4907960;29;20206;-80
2022/06/02 06:19:20;;;;;;;1.92;1.30;;;16.10;99.90;;;;;;4894867;29;20207;-81
2022/06/02 06:22:02;;;;;;;2.15;0.90;;;16.00;99.90;;;;;;4936628;28;20204;-80
2022/06/02 06:24:53;;;;;;;1.25;1.00;;;15.80;99.90;;;;;;4967358;28;20235;-81
2022/06/02 06:27:31;;;;;;;1.45;1.13;;;16.20;99.90;;;;;;4967165;28;20315;-80
2022/06/02 06:30:09;;;;;;;1.00;0.80;;;16.80;99.90;;;;;;4968507;28;20204;-81
2022/06/02 06:32:44;;;;;;;2.08;1.10;;;17.10;99.90;;;;;;4968488;28;20243;-81
2022/06/02 06:35:38;;;;;;;2.20;1.20;;;17.40;99.90;;;;;;4967783;28;20307;-80
2022/06/02 06:38:34;;;;;;;1.73;1.00;;;17.90;99.90;;;;;;4967309;28;20223;-81
2022/06/02 06:41:21;;;;;;;2.38;0.90;;;18.40;99.90;;;;;;4966856;28;20299;-80
2022/06/02 06:44:01;;;;;;;3.78;1.00;;;18.60;99.90;;;;;;4968029;28;20208;-79
2022/06/02 06:46:37;;;;;;;1.73;0.73;;;18.80;99.90;;;;;;4968311;28;20208;-80
2022/06/02 06:49:15;;;;;;;1.90;0.73;;;19.10;99.90;;;;;;4970194;28;20243;-82
2022/06/02 06:51:54;;;;;;;2.63;1.10;;;19.70;99.90;;;;;;4974669;28;20239;-83
2022/06/02 06:54:37;;;;;;;1.17;0.60;;;19.90;99.90;;;;;;4974429;28;20208;-82
2022/06/02 06:57:11;;;;;;;0.90;0.70;;;20.40;99.90;;;;;;4974694;28;20220;-83
2022/06/02 06:59:50;;;;;;;1.52;0.60;;;20.80;99.90;;;;;;4973031;28;20292;-84
2022/06/02 07:02:32;;;;;;;0.95;0.68;;;21.00;99.90;;;;;;4971682;28;20453;-81
2022/06/02 07:05:06;;;;;;;1.08;0.60;;;21.10;99.90;;;;;;4982054;28;20270;-83
2022/06/02 07:07:40;;;;;;;1.30;0.70;;;21.10;99.90;;;;;;4991986;28;20517;-83
2022/06/02 07:10:14;;;;;;;1.35;0.80;;;20.70;99.90;;;;;;4990751;28;20210;-81
2022/06/02 07:12:51;;;;;;;1.80;1.02;;;20.00;99.90;;;;;;4990567;28;20196;-82
2022/06/02 07:15:31;;;;;;;2.33;1.00;;;19.40;99.90;;;;;;4976811;28;20301;-79
2022/06/02 07:18:05;;;;;;;1.05;0.90;;;19.60;99.90;;;;;;4970281;28;20205;-80
2022/06/02 07:20:38;;;;;;;0.98;0.70;;;20.00;99.90;;;;;;4985718;28;20212;-81
2022/06/02 07:23:13;;;;;;;1.58;0.75;;;20.20;99.90;;;;;;4990386;28;20212;-81
2022/06/02 07:25:53;;;;;;;0.63;0.55;;;20.10;99.90;;;;;;4987291;28;20231;-84
2022/06/02 07:28:32;;;;;;;0.80;0.60;;;20.30;99.90;;;;;;4970342;28;20644;-82
2022/06/02 07:31:14;;;;;;;2.33;0.90;;;20.70;99.90;;;;;;4972357;28;20212;-78
2022/06/02 07:33:53;;;;;;;1.83;1.00;;;20.70;99.90;;;;;;4974554;28;20236;-78
2022/06/02 07:36:56;;;;;;;0.82;0.63;;;20.80;99.90;;;;;;4973424;28;20212;-79
2022/06/02 07:40:13;;;;;;;1.25;0.85;;;20.70;99.90;;;;;;4974395;28;20311;-81
2022/06/02 07:43:19;;;;;;;2.42;0.77;;;21.20;99.90;;;;;;4931587;29;20202;-80
2022/06/02 07:45:58;;;;;;;1.67;0.90;;;21.60;99.90;;;;;;4932962;29;20916;-81
2022/06/02 07:48:48;;;;;;;0.80;0.60;;;21.80;99.90;;;;;;4971506;28;20723;-80
2022/06/02 07:51:23;;;;;;;1.10;0.70;;;21.70;99.90;;;;;;4972981;28;20192;-80
2022/06/02 07:54:04;;;;;;;0.73;0.60;;;22.10;99.90;;;;;;4993641;28;20215;-82
2022/06/02 07:56:39;;;;;;;0.47;0.32;;;22.60;99.90;;;;;;4996253;28;20234;-78
2022/06/02 07:59:18;;;;;;;1.42;0.80;;;23.00;99.90;;;;;;4992492;28;20274;-80
2022/06/02 08:01:59;;;;;;;1.10;0.68;;;23.20;99.90;;;;;;4993199;28;20246;-81
2022/06/02 08:04:34;;;;;;;1.45;0.70;;;23.40;99.90;;;;;;4992522;28;20912;-81
2022/06/02 08:07:07;;;;;;;4.68;1.05;;;23.30;99.90;;;;;;4993198;28;20294;-83
2022/06/02 08:09:45;;;;;;;1.17;0.70;;;23.50;99.90;;;;;;4991008;28;20232;-81
2022/06/02 08:12:22;;;;;;;0.70;0.50;;;23.70;99.90;;;;;;4991654;28;20200;-82
2022/06/02 08:15:07;;;;;;;0.90;0.50;;;23.50;99.90;;;;;;4991106;28;20232;-81
2022/06/02 08:17:38;;;;;;;3.38;0.80;;;23.20;99.90;;;;;;4990788;28;20591;-81
2022/06/02 08:20:25;;;;;;;3.00;0.73;;;22.90;99.90;;;;;;4989802;28;20672;-82
2022/06/02 08:23:00;;;;;;;1.50;0.68;;;22.80;99.90;;;;;;4990115;28;20200;-79
2022/06/02 08:25:38;;;;;;;2.10;0.70;;;23.00;99.90;;;;;;4988070;28;20235;-78
2022/06/02 08:28:24;;;;;;;1.38;0.80;;;22.70;99.90;;;;;;4987825;28;20318;-79
2022/06/02 08:30:59;;;;;;;2.03;0.60;;;22.90;99.90;;;;;;4988484;28;20283;-79
2022/06/02 08:33:40;;;;;;;0.70;0.68;;;23.00;99.90;;;;;;4988451;28;20215;-82
2022/06/02 08:36:13;;;;;;;2.40;0.75;;;23.40;99.90;;;;;;4988743;28;20654;-80
2022/06/02 08:38:56;;;;;;;0.93;0.55;;;23.70;99.90;;;;;;4978999;28;20212;-79
2022/06/02 08:41:55;;;;;;;3.10;0.80;;;23.90;99.90;;;;;;4968946;28;20292;-79
2022/06/02 08:45:00;;;;;;;1.75;0.63;;;23.80;99.90;;;;;;4969062;28;20302;-81
2022/06/02 08:48:06;;;;;;;1.40;0.70;;;23.90;99.90;;;;;;4970636;28;20310;-81
2022/06/02 08:51:07;;;;;;;2.13;0.68;;;24.10;99.90;;;;;;4969337;28;20323;-80
2022/06/02 08:54:14;;;;;;;2.40;0.75;;;24.10;99.90;;;;;;4939508;28;20200;-81
2022/06/02 08:57:01;;;;;;;0.73;0.50;;;23.90;99.90;;;;;;4969383;28;20523;-79
2022/06/02 09:00:03;;;;;;;1.55;0.60;;;23.70;99.90;;;;;;4969371;28;20205;-80
2022/06/02 09:03:05;;;;;;;1.38;0.55;;;23.60;99.90;;;;;;4969489;28;20228;-80
2022/06/02 09:06:11;;;;;;;1.17;0.50;;;23.40;99.90;;;;;;4969536;28;20228;-80
2022/06/02 09:09:21;;;;;;;2.78;0.80;;;23.50;99.90;;;;;;4970953;28;20263;-80
2022/06/02 09:12:25;;;;;;;0.80;0.80;;;23.50;99.90;;;;;;4989278;28;20208;-83
2022/06/02 09:15:25;;;;;;;1.98;0.57;;;23.80;99.90;;;;;;4954315;28;20236;-81
2022/06/02 09:18:12;;;;;;;1.35;0.70;;;24.00;99.90;;;;;;4963405;28;21068;-86
2022/06/02 09:20:48;;;;;;;1.38;0.70;;;24.00;99.90;;;;;;4988418;28;20587;-81
2022/06/02 09:23:48;;;;;;;2.58;0.70;;;23.90;99.90;;;;;;4988191;28;20218;-80
2022/06/02 09:26:30;;;;;;;1.33;0.80;;;23.90;99.90;;;;;;4955711;28;20247;-82
2022/06/02 09:29:19;;;;;;;1.85;0.60;;;23.60;99.90;;;;;;4987756;28;20543;-80
2022/06/02 09:32:21;;;;;;;0.80;0.65;;;23.70;99.90;;;;;;4969560;28;20228;-83
2022/06/02 09:35:18;;;;;;;1.02;0.70;;;23.90;99.90;;;;;;4968427;28;20234;-83
2022/06/02 09:38:06;;;;;;;2.60;0.90;;;24.00;99.90;;;;;;4969262;28;20211;-81
2022/06/02 09:40:49;;;;;;;1.67;0.63;;;23.90;99.90;;;;;;4968594;28;20196;-80
2022/06/02 09:43:49;;;;;;;4.47;0.63;;;24.10;99.90;;;;;;4986152;28;20211;-79
2022/06/02 09:46:58;;;;;;;1.08;0.50;;;24.30;99.90;;;;;;4979588;28;20211;-79
2022/06/02 09:49:48;;;;;;;0.60;0.57;;;24.50;99.90;;;;;;4933789;28;20707;-80
2022/06/02 09:52:28;;;;;;;1.10;0.47;;;24.60;99.90;;;;;;4967871;28;20215;-80
2022/06/02 09:55:28;;;;;;;0.80;0.80;;;24.70;99.90;;;;;;4969436;28;20311;-83
2022/06/02 09:58:30;;;;;;;1.38;0.50;;;24.60;99.90;;;;;;4971056;28;20894;-81
2022/06/02 10:01:11;;;;;;;1.67;0.55;;;24.40;99.90;;;;;;4991342;28;20524;-82
2022/06/02 10:04:18;;;;;;;1.48;0.73;;;24.00;99.90;;;;;;4973524;28;20216;-83
2022/06/02 10:07:07;;;;;;;1.33;0.63;;;23.70;99.90;;;;;;4971097;28;20268;-79
2022/06/02 10:09:54;;;;;;;3.30;0.50;;;23.50;99.90;;;;;;4972124;28;20232;-83
2022/06/02 10:12:55;;;;;;;2.42;0.80;;;23.70;99.90;;;;;;4968475;28;20208;-81
2022/06/02 10:15:39;;;;;;;3.42;0.80;;;23.70;99.90;;;;;;4974632;28;20382;-82
2022/06/02 10:18:19;;;;;;;2.13;0.70;;;23.70;99.90;;;;;;4988021;28;20200;-81
2022/06/02 10:21:10;;;;;;;1.05;0.70;;;23.70;99.90;;;;;;4988761;28;20200;-78
2022/06/02 10:24:14;;;;;;;2.15;0.60;;;23.80;99.90;;;;;;4985440;28;20208;-80
2022/06/02 10:26:52;;;;;;;1.08;0.60;;;23.70;99.90;;;;;;4987663;28;20204;-81
2022/06/02 10:29:55;;;;;;;1.67;0.70;;;23.30;99.90;;;;;;4987648;28;20223;-81
2022/06/02 10:32:55;;;;;;;1.88;0.90;;;23.40;99.90;;;;;;4977823;28;20211;-80
2022/06/02 10:36:04;;;;;;;1.58;0.90;;;23.50;99.90;;;;;;4977983;28;20925;-80
2022/06/02 10:38:41;;;;;;;2.47;0.85;;;23.70;99.90;;;;;;4972572;28;20212;-83
2022/06/02 10:41:35;;;;;;;1.42;0.70;;;23.90;99.90;;;;;;4968159;28;20751;-82
2022/06/02 10:44:14;;;;;;;3.80;1.13;;;23.80;99.90;;;;;;4978993;28;20507;-80
2022/06/02 10:47:29;;;;;;;2.15;0.70;;;24.10;99.90;;;;;;4980306;28;20196;-80
2022/06/02 10:50:27;;;;;;;2.20;0.80;;;24.20;99.90;;;;;;4977179;28;20224;-80
2022/06/02 10:53:27;;;;;;;3.00;0.73;;;23.90;99.90;;;;;;4964577;28;20220;-81
2022/06/02 10:56:28;;;;;;;1.25;0.60;;;23.90;99.90;;;;;;4979976;28;20208;-80
2022/06/02 10:59:39;;;;;;;1.40;0.80;;;23.90;99.90;;;;;;4970261;28;20211;-79
2022/06/02 11:02:48;;;;;;;1.42;0.65;;;23.80;99.90;;;;;;4970235;28;20234;-80
2022/06/02 11:05:50;;;;;;;1.83;0.80;;;24.00;99.90;;;;;;4932237;28;20205;-83
2022/06/02 11:08:53;;;;;;;1.88;0.70;;;24.10;99.90;;;;;;4968755;28;20219;-83
2022/06/02 11:11:45;;;;;;;0.73;0.70;;;23.90;99.90;;;;;;4971786;28;20212;-79
2022/06/02 11:14:37;;;;;;;2.90;0.80;;;23.80;99.90;;;;;;4970246;28;20724;-80
2022/06/02 11:17:38;;;;;;;1.25;0.50;;;23.40;99.90;;;;;;4938189;28;20332;-79
2022/06/02 11:20:29;;;;;;;1.48;0.65;;;23.50;99.90;;;;;;4970289;28;20517;-82
2022/06/02 11:23:28;;;;;;;1.27;0.60;;;23.60;99.90;;;;;;4972146;28;20197;-81
2022/06/02 11:26:39;;;;;;;3.08;0.80;;;23.40;99.90;;;;;;4971388;28;20257;-80
2022/06/02 11:29:48;;;;;;;1.83;0.80;;;23.10;99.90;;;;;;4970322;28;20702;-82
2022/06/02 11:32:28;;;;;;;1.50;0.60;;;22.90;99.90;;;;;;4970146;28;20205;-80
2022/06/02 11:35:27;;;;;;;1.25;0.47;;;22.90;99.90;;;;;;4985674;28;20214;-81
2022/06/02 11:38:23;;;;;;;2.28;0.80;;;23.00;99.90;;;;;;4989558;28;20303;-79
2022/06/02 11:41:12;;;;;;;3.63;1.10;;;23.20;99.90;;;;;;4970082;28;20205;-81
2022/06/02 11:43:52;;;;;;;1.23;0.70;;;23.30;99.90;;;;;;4968691;28;20294;-80
2022/06/02 11:47:01;;;;;;;1.10;0.57;;;23.60;99.90;;;;;;4971046;28;20598;-84
2022/06/02 11:49:46;;;;;;;1.33;0.68;;;23.50;99.90;;;;;;4973751;28;20238;-80
2022/06/02 11:52:30;;;;;;;1.27;0.60;;;23.60;99.90;;;;;;4988984;28;20210;-80
2022/06/02 11:55:17;;;;;;;1.13;0.70;;;23.70;99.90;;;;;;4989886;28;20233;-79
2022/06/02 11:57:58;;;;;;;2.15;0.80;;;23.70;99.90;;;;;;4989599;28;20427;-81
2022/06/02 12:00:58;;;;;;;2.15;0.80;;;23.70;99.90;;;;;;4991504;28;20296;-82
2022/06/02 12:04:03;;;;;;;0.82;0.70;;;23.70;99.90;;;;;;4989130;28;20196;-80
2022/06/02 12:07:15;;;;;;;0.90;0.70;;;23.70;99.90;;;;;;4972471;28;20599;-82
2022/06/02 12:10:07;;;;;;;1.10;0.70;;;23.80;99.90;;;;;;4937795;28;20254;-82
2022/06/02 12:13:03;;;;;;;1.70;0.57;;;23.90;99.90;;;;;;4970152;28;20224;-79
2022/06/02 12:15:57;;;;;;;0.80;0.80;;;24.10;99.90;;;;;;4969731;28;20645;-79
2022/06/02 12:18:28;;;;;;;2.65;0.90;;;23.90;99.90;;;;;;4969601;28;20302;-80
2022/06/02 12:21:24;;;;;;;1.90;0.68;;;23.80;99.90;;;;;;4970216;28;20279;-79
2022/06/02 12:24:13;;;;;;;1.92;1.05;;;23.80;99.90;;;;;;4972268;28;20218;-79
2022/06/02 12:26:58;;;;;;;1.85;0.88;;;23.60;99.90;;;;;;4989118;28;20212;-82
2022/06/02 12:29:38;;;;;;;2.70;0.60;;;23.50;99.90;;;;;;4980200;28;20335;-79
2022/06/02 12:32:28;;;;;;;3.25;0.73;;;23.50;99.90;;;;;;4968235;28;20307;-80
2022/06/02 12:35:35;;;;;;;1.48;0.70;;;23.60;99.90;;;;;;4969529;28;20192;-81
2022/06/02 12:38:19;;;;;;;1.05;0.68;;;23.80;99.90;;;;;;4965315;28;20323;-82
2022/06/02 12:41:06;;;;;;;3.28;1.20;;;23.70;99.90;;;;;;4969919;28;20205;-79
2022/06/02 12:44:05;;;;;;;1.58;0.70;;;23.50;99.90;;;;;;4970836;28;20192;-80
2022/06/02 12:47:02;;;;;;;2.90;0.90;;;23.30;99.90;;;;;;4969714;28;20240;-80
2022/06/02 12:50:06;;;;;;;1.02;0.77;;;23.20;99.90;;;;;;4971239;28;20268;-83
2022/06/02 12:52:57;;;;;;;2.20;0.70;;;23.30;99.90;;;;;;4970676;28;20581;-83
2022/06/02 12:55:35;;;;;;;1.42;0.70;;;23.40;99.90;;;;;;4969140;28;20308;-80
2022/06/02 12:58:35;;;;;;;4.05;1.02;;;23.40;99.90;;;;;;4969131;28;20228;-82
2022/06/02 13:01:10;;;;;;;0.60;0.60;;;23.30;99.90;;;;;;4970305;28;20517;-80
2022/06/02 13:04:07;;;;;;;1.10;0.70;;;23.40;99.90;;;;;;4979597;28;20211;-83
2022/06/02 13:06:57;;;;;;;1.00;0.70;;;23.30;99.90;;;;;;4988853;28;20223;-80
2022/06/02 13:09:49;;;;;;;1.10;0.70;;;23.20;99.90;;;;;;4970003;28;20303;-81
2022/06/02 13:12:37;;;;;;;1.23;0.60;;;23.20;99.90;;;;;;4948479;28;20216;-79
2022/06/02 13:15:29;;;;;;;2.58;0.73;;;23.00;99.90;;;;;;4983061;28;20339;-79
2022/06/02 13:18:19;;;;;;;1.98;0.90;;;22.70;99.90;;;;;;4988644;28;20607;-79
2022/06/02 13:21:15;;;;;;;3.25;0.65;;;22.70;99.90;;;;;;4974354;28;20320;-79
2022/06/02 13:24:06;;;;;;;0.65;0.50;;;22.60;99.90;;;;;;4968987;28;20205;-80
2022/06/02 13:27:03;;;;;;;2.13;0.70;;;22.50;99.90;;;;;;4968011;28;20277;-79
2022/06/02 13:29:58;;;;;;;0.75;0.60;;;22.60;99.90;;;;;;4968796;28;20232;-80
2022/06/02 13:33:15;;;;;;;2.58;0.70;;;22.50;99.90;;;;;;4968430;28;20203;-79
2022/06/02 13:36:08;;;;;;;1.42;0.60;;;22.50;99.90;;;;;;4968578;28;20260;-78
2022/06/02 13:39:11;;;;;;;1.77;0.65;;;22.00;99.90;;;;;;4968292;28;20215;-80
2022/06/02 13:42:25;;;;;;;2.00;0.80;;;22.00;99.90;;;;;;4951258;28;20604;-79
2022/06/02 13:45:35;;;;;;;0.98;0.47;;;22.00;99.90;;;;;;4955552;28;20219;-79
2022/06/02 13:49:01;;;;;;;2.40;0.85;;;22.00;99.90;;;;;;4966951;28;20267;-81
2022/06/02 13:52:04;;;;;;;1.33;0.88;;;22.10;99.90;;;;;;4968524;28;20234;-80
2022/06/02 13:58:04;;;;;;;2.78;0.90;;;22.30;99.90;;;;;;4968216;28;20195;-80
2022/06/02 14:00:55;;;;;;;0.73;0.68;;;22.40;99.90;;;;;;4974684;28;20207;-78
2022/06/02 14:03:46;;;;;;;3.55;1.10;;;22.50;99.90;;;;;;4986382;28;20203;-81
2022/06/02 14:06:17;;;;;;;2.13;0.90;;;22.70;99.90;;;;;;4987145;28;20204;-83
2022/06/02 14:09:08;;;;;;;1.45;0.60;;;22.70;99.90;;;;;;4986164;28;20192;-81
2022/06/02 14:11:50;;;;;;;0.75;0.40;;;22.60;99.90;;;;;;4967720;28;20204;-78
2022/06/02 14:15:01;;;;;;;2.25;0.70;;;22.50;99.90;;;;;;4967420;28;20804;-80
2022/06/02 14:17:47;;;;;;;1.92;0.55;;;22.50;99.90;;;;;;4967064;28;20295;-79
2022/06/02 14:20:21;;;;;;;0.93;0.60;;;22.20;99.90;;;;;;4966111;28;20910;-81
2022/06/02 14:23:09;;;;;;;1.80;0.60;;;21.90;99.90;;;;;;4966214;28;20196;-82
2022/06/02 14:25:47;;;;;;;1.52;0.60;;;22.00;99.90;;;;;;4966040;28;20236;-79
2022/06/02 14:28:33;;;;;;;0.63;0.63;;;22.00;99.90;;;;;;4967421;28;20620;-82
2022/06/02 14:31:07;;;;;;;1.77;0.70;;;22.10;99.90;;;;;;4967230;28;20228;-79
2022/06/02 14:33:37;;;;;;;1.60;0.80;;;22.00;99.90;;;;;;4967551;28;20239;-79
2022/06/02 14:36:18;;;;;;;2.92;0.80;;;21.90;99.90;;;;;;4967046;28;20208;-79